createdAt,value
2018-12-19T00:00:54.647Z,12.00
2018-12-19T00:01:54.454Z,24.00
2018-12-19T00:02:54.446Z,16.00
2018-12-19T00:03:54.443Z,20.00
2018-12-19T00:04:54.430Z,16.00
2018-12-19T00:05:54.415Z,12.00
2018-12-19T00:06:54.475Z,12.00
2018-12-19T00:07:54.393Z,12.00
2018-12-19T00:08:54.387Z,12.00
2018-12-19T00:09:54.373Z,12.00
2018-12-19T00:10:54.362Z,12.00
2018-12-19T00:11:54.351Z,12.00
2018-12-19T00:12:54.380Z,12.00
2018-12-19T00:13:54.330Z,12.00
2018-12-19T00:14:54.330Z,12.00
2018-12-19T00:15:54.307Z,12.00
2018-12-19T00:16:54.295Z,12.00
2018-12-19T00:17:54.287Z,12.00
2018-12-19T00:18:54.312Z,12.00
2018-12-19T00:19:54.267Z,12.00
2018-12-19T00:20:54.259Z,12.00
2018-12-19T00:21:54.248Z,12.00
2018-12-19T00:22:54.233Z,12.00
2018-12-19T00:23:54.223Z,12.00
2018-12-19T00:24:54.302Z,12.00
2018-12-19T00:26:04.795Z,12.00
2018-12-19T00:26:54.192Z,12.00
2018-12-19T00:27:54.784Z,12.00
2018-12-19T00:28:54.175Z,12.00
2018-12-19T00:29:54.161Z,12.00
2018-12-19T00:30:54.197Z,12.00
2018-12-19T00:31:54.148Z,12.00
2018-12-19T00:32:54.134Z,12.00
2018-12-19T00:33:54.132Z,12.00
2018-12-19T00:34:54.108Z,12.00
2018-12-19T00:35:54.095Z,12.00
2018-12-19T00:36:54.127Z,16.00
2018-12-19T00:37:54.084Z,16.00
2018-12-19T00:38:54.070Z,12.00
2018-12-19T00:39:54.061Z,12.00
2018-12-19T00:40:54.044Z,12.00
2018-12-19T00:41:54.040Z,12.00
2018-12-19T00:42:54.059Z,12.00
2018-12-19T00:43:54.011Z,12.00
2018-12-19T00:44:54.007Z,12.00
2018-12-19T00:45:54.002Z,12.00
2018-12-19T00:46:53.989Z,12.00
2018-12-19T00:47:53.978Z,12.00
2018-12-19T00:48:54.011Z,12.00
2018-12-19T00:49:53.949Z,12.00
2018-12-19T00:50:53.947Z,12.00
2018-12-19T00:51:53.941Z,12.00
2018-12-19T00:52:53.920Z,12.00
2018-12-19T00:53:53.906Z,12.00
2018-12-19T00:54:53.944Z,12.00
2018-12-19T00:55:53.885Z,12.00
2018-12-19T00:57:03.909Z,12.00
2018-12-19T00:57:53.869Z,12.00
2018-12-19T00:58:53.860Z,12.00
2018-12-19T00:59:53.846Z,12.00
2018-12-19T01:00:53.945Z,12.00
2018-12-19T01:01:53.828Z,12.00
2018-12-19T01:02:53.816Z,12.00
2018-12-19T01:03:53.815Z,12.00
2018-12-19T01:04:53.796Z,12.00
2018-12-19T01:05:53.786Z,12.00
2018-12-19T01:06:53.811Z,12.00
2018-12-19T01:07:53.763Z,12.00
2018-12-19T01:08:53.762Z,12.00
2018-12-19T01:09:53.740Z,12.00
2018-12-19T01:10:53.729Z,12.00
2018-12-19T01:11:53.718Z,12.00
2018-12-19T01:12:53.743Z,12.00
2018-12-19T01:13:53.700Z,12.00
2018-12-19T01:14:53.705Z,12.00
2018-12-19T01:15:53.682Z,12.00
2018-12-19T01:16:53.666Z,12.00
2018-12-19T01:17:53.660Z,12.00
2018-12-19T01:18:53.683Z,12.00
2018-12-19T01:19:53.637Z,12.00
2018-12-19T01:20:53.633Z,12.00
2018-12-19T01:21:53.621Z,12.00
2018-12-19T01:22:53.608Z,12.00
2018-12-19T01:23:53.598Z,12.00
2018-12-19T01:24:53.760Z,12.00
2018-12-19T01:25:53.577Z,12.00
2018-12-19T01:26:53.562Z,12.00
2018-12-19T01:28:04.114Z,12.00
2018-12-19T01:28:53.542Z,12.00
2018-12-19T01:29:53.531Z,12.00
2018-12-19T01:30:53.561Z,12.00
2018-12-19T01:31:53.514Z,12.00
2018-12-19T01:32:53.506Z,12.00
2018-12-19T01:33:53.525Z,12.00
2018-12-19T01:34:53.488Z,12.00
2018-12-19T01:35:53.467Z,12.00
2018-12-19T01:36:53.492Z,12.00
2018-12-19T01:37:53.454Z,12.00
2018-12-19T01:38:53.436Z,12.00
2018-12-19T01:39:53.432Z,12.00
2018-12-19T01:40:53.420Z,12.00
2018-12-19T01:41:53.407Z,12.00
2018-12-19T01:42:53.432Z,12.00
2018-12-19T01:43:53.391Z,12.00
2018-12-19T01:44:53.377Z,12.00
2018-12-19T01:45:53.376Z,12.00
2018-12-19T01:46:53.352Z,12.00
2018-12-19T01:47:53.341Z,12.00
2018-12-19T01:48:53.399Z,12.00
2018-12-19T01:49:53.321Z,12.00
2018-12-19T01:50:53.313Z,12.00
2018-12-19T01:51:53.312Z,12.00
2018-12-19T01:52:53.298Z,12.00
2018-12-19T01:53:53.284Z,12.00
2018-12-19T01:54:53.348Z,12.00
2018-12-19T01:55:53.264Z,12.00
2018-12-19T01:56:53.252Z,12.00
2018-12-19T01:57:53.247Z,12.00
2018-12-19T01:59:03.639Z,12.00
2018-12-19T01:59:53.222Z,12.00
2018-12-19T02:00:53.251Z,12.00
2018-12-19T02:01:53.202Z,12.00
2018-12-19T02:02:53.189Z,12.00
2018-12-19T02:03:53.188Z,12.00
2018-12-19T02:04:53.168Z,12.00
2018-12-19T02:05:53.161Z,12.00
2018-12-19T02:06:53.178Z,12.00
2018-12-19T02:07:53.139Z,12.00
2018-12-19T02:08:53.127Z,12.00
2018-12-19T02:09:53.113Z,12.00
2018-12-19T02:10:53.107Z,12.00
2018-12-19T02:11:53.099Z,12.00
2018-12-19T02:12:53.265Z,12.00
2018-12-19T02:13:53.074Z,12.00
2018-12-19T02:14:53.063Z,12.00
2018-12-19T02:15:53.059Z,12.00
2018-12-19T02:16:53.048Z,12.00
2018-12-19T02:17:53.033Z,16.00
2018-12-19T02:18:53.064Z,12.00
2018-12-19T02:19:53.009Z,12.00
2018-12-19T02:20:53.000Z,12.00
2018-12-19T02:21:52.990Z,12.00
2018-12-19T02:22:52.981Z,12.00
2018-12-19T02:23:52.970Z,12.00
2018-12-19T02:24:53.136Z,12.00
2018-12-19T02:25:52.948Z,12.00
2018-12-19T02:26:52.943Z,12.00
2018-12-19T02:27:52.931Z,12.00
2018-12-19T02:28:52.916Z,12.00
2018-12-19T02:30:03.367Z,12.00
2018-12-19T02:30:52.902Z,12.00
2018-12-19T02:31:52.888Z,12.00
2018-12-19T02:32:52.876Z,12.00
2018-12-19T02:33:52.868Z,12.00
2018-12-19T02:34:52.866Z,12.00
2018-12-19T02:35:52.890Z,12.00
2018-12-19T02:36:52.840Z,12.00
2018-12-19T02:37:52.828Z,12.00
2018-12-19T02:38:52.820Z,12.00
2018-12-19T02:39:52.806Z,12.00
2018-12-19T02:40:52.795Z,12.00
2018-12-19T02:41:52.878Z,12.00
2018-12-19T02:42:52.782Z,12.00
2018-12-19T02:43:52.763Z,12.00
2018-12-19T02:44:52.757Z,12.00
2018-12-19T02:45:52.744Z,12.00
2018-12-19T02:46:52.735Z,12.00
2018-12-19T02:47:52.879Z,12.00
2018-12-19T02:48:52.711Z,12.00
2018-12-19T02:49:52.707Z,12.00
2018-12-19T02:50:52.696Z,12.00
2018-12-19T02:51:52.680Z,12.00
2018-12-19T02:52:52.670Z,12.00
2018-12-19T02:53:52.707Z,12.00
2018-12-19T02:54:52.654Z,12.00
2018-12-19T02:55:52.645Z,12.00
2018-12-19T02:56:52.634Z,12.00
2018-12-19T02:57:52.621Z,12.00
2018-12-19T02:58:52.615Z,12.00
2018-12-19T02:59:52.643Z,12.00
2018-12-19T03:01:03.792Z,12.00
2018-12-19T03:01:52.576Z,12.00
2018-12-19T03:02:52.570Z,12.00
2018-12-19T03:03:52.556Z,12.00
2018-12-19T03:04:52.555Z,12.00
2018-12-19T03:05:52.576Z,12.00
2018-12-19T03:06:52.524Z,12.00
2018-12-19T03:07:52.520Z,12.00
2018-12-19T03:08:52.513Z,12.00
2018-12-19T03:09:52.492Z,12.00
2018-12-19T03:10:52.483Z,12.00
2018-12-19T03:11:52.492Z,12.00
2018-12-19T03:12:52.464Z,12.00
2018-12-19T03:13:52.455Z,12.00
2018-12-19T03:14:52.440Z,12.00
2018-12-19T03:15:52.443Z,12.00
2018-12-19T03:16:52.423Z,12.00
2018-12-19T03:17:52.479Z,12.00
2018-12-19T03:18:52.409Z,12.00
2018-12-19T03:19:52.400Z,12.00
2018-12-19T03:20:52.382Z,12.00
2018-12-19T03:21:52.369Z,12.00
2018-12-19T03:22:52.370Z,12.00
2018-12-19T03:23:52.386Z,12.00
2018-12-19T03:24:52.337Z,12.00
2018-12-19T03:25:52.330Z,12.00
2018-12-19T03:26:52.316Z,12.00
2018-12-19T03:27:52.315Z,12.00
2018-12-19T03:28:52.299Z,12.00
2018-12-19T03:29:52.317Z,12.00
2018-12-19T03:30:53.445Z,12.00
2018-12-19T03:32:02.414Z,12.00
2018-12-19T03:32:52.268Z,12.00
2018-12-19T03:33:52.246Z,12.00
2018-12-19T03:34:52.234Z,12.00
2018-12-19T03:35:52.535Z,12.00
2018-12-19T03:36:52.290Z,12.00
2018-12-19T03:37:52.213Z,12.00
2018-12-19T03:38:52.190Z,12.00
2018-12-19T03:39:52.183Z,12.00
2018-12-19T03:40:52.176Z,12.00
2018-12-19T03:41:52.260Z,12.00
2018-12-19T03:42:52.155Z,12.00
2018-12-19T03:43:52.138Z,12.00
2018-12-19T03:44:52.134Z,12.00
2018-12-19T03:45:52.120Z,12.00
2018-12-19T03:46:52.113Z,12.00
2018-12-19T03:47:52.138Z,12.00
2018-12-19T03:48:52.098Z,12.00
2018-12-19T03:49:52.084Z,12.00
2018-12-19T03:50:52.073Z,12.00
2018-12-19T03:51:52.063Z,12.00
2018-12-19T03:52:52.044Z,12.00
2018-12-19T03:53:52.073Z,12.00
2018-12-19T03:54:52.032Z,12.00
2018-12-19T03:55:52.018Z,12.00
2018-12-19T03:56:52.017Z,12.00
2018-12-19T03:57:52.008Z,12.00
2018-12-19T03:58:51.993Z,12.00
2018-12-19T03:59:52.016Z,12.00
2018-12-19T04:00:51.967Z,12.00
2018-12-19T04:01:51.955Z,12.00
2018-12-19T04:03:02.434Z,12.00
2018-12-19T04:03:51.931Z,12.00
2018-12-19T04:04:51.920Z,12.00
2018-12-19T04:05:51.950Z,12.00
2018-12-19T04:06:51.908Z,12.00
2018-12-19T04:07:51.900Z,12.00
2018-12-19T04:08:51.885Z,12.00
2018-12-19T04:09:57.690Z,12.00
2018-12-19T04:10:52.904Z,12.00
2018-12-19T04:11:51.861Z,12.00
2018-12-19T04:12:51.845Z,12.00
2018-12-19T04:13:51.832Z,12.00
2018-12-19T04:14:51.820Z,12.00
2018-12-19T04:15:51.811Z,12.00
2018-12-19T04:16:51.845Z,12.00
2018-12-19T04:17:51.798Z,12.00
2018-12-19T04:18:51.778Z,12.00
2018-12-19T04:19:51.772Z,12.00
2018-12-19T04:20:51.757Z,12.00
2018-12-19T04:21:51.751Z,12.00
2018-12-19T04:22:51.777Z,12.00
2018-12-19T04:23:51.733Z,12.00
2018-12-19T04:24:51.720Z,12.00
2018-12-19T04:25:51.706Z,12.00
2018-12-19T04:26:51.692Z,12.00
2018-12-19T04:27:51.690Z,12.00
2018-12-19T04:28:51.714Z,12.00
2018-12-19T04:29:51.672Z,12.00
2018-12-19T04:30:51.670Z,12.00
2018-12-19T04:31:51.648Z,12.00
2018-12-19T04:32:51.635Z,12.00
2018-12-19T04:34:02.430Z,12.00
2018-12-19T04:34:51.611Z,12.00
2018-12-19T04:35:51.604Z,12.00
2018-12-19T04:36:51.601Z,12.00
2018-12-19T04:37:51.579Z,12.00
2018-12-19T04:38:51.581Z,12.00
2018-12-19T04:39:51.601Z,16.00
2018-12-19T04:40:51.548Z,16.00
2018-12-19T04:41:51.553Z,16.00
2018-12-19T04:42:51.937Z,16.00
2018-12-19T04:43:51.525Z,16.00
2018-12-19T04:44:51.513Z,16.00
2018-12-19T04:45:51.532Z,16.00
2018-12-19T04:46:51.500Z,16.00
2018-12-19T04:47:51.482Z,12.00
2018-12-19T04:48:51.471Z,16.00
2018-12-19T04:49:51.456Z,16.00
2018-12-19T04:50:51.452Z,16.00
2018-12-19T04:51:51.918Z,16.00
2018-12-19T04:52:51.430Z,16.00
2018-12-19T04:53:51.418Z,16.00
2018-12-19T04:54:51.407Z,12.00
2018-12-19T04:55:51.401Z,12.00
2018-12-19T04:56:51.384Z,12.00
2018-12-19T04:57:51.597Z,12.00
2018-12-19T04:58:51.374Z,12.00
2018-12-19T04:59:51.367Z,16.00
2018-12-19T05:00:58.329Z,16.00
2018-12-19T05:01:51.333Z,12.00
2018-12-19T05:02:51.324Z,12.00
2018-12-19T05:03:51.420Z,12.00
2018-12-19T05:04:51.306Z,12.00
2018-12-19T05:05:51.299Z,12.00
2018-12-19T05:06:51.289Z,12.00
2018-12-19T05:07:51.277Z,12.00
2018-12-19T05:08:51.274Z,12.00
2018-12-19T05:09:51.292Z,12.00
2018-12-19T05:10:51.243Z,12.00
2018-12-19T05:11:51.232Z,12.00
2018-12-19T05:12:51.228Z,12.00
2018-12-19T05:13:51.227Z,16.00
2018-12-19T05:14:51.205Z,12.00
2018-12-19T05:15:51.226Z,12.00
2018-12-19T05:16:51.177Z,16.00
2018-12-19T05:17:51.171Z,16.00
2018-12-19T05:18:51.190Z,16.00
2018-12-19T05:19:51.157Z,16.00
2018-12-19T05:20:51.138Z,16.00
2018-12-19T05:21:51.163Z,16.00
2018-12-19T05:22:51.116Z,16.00
2018-12-19T05:23:51.107Z,16.00
2018-12-19T05:24:51.096Z,16.00
2018-12-19T05:25:51.105Z,16.00
2018-12-19T05:26:51.076Z,16.00
2018-12-19T05:27:51.238Z,16.00
2018-12-19T05:28:51.053Z,16.00
2018-12-19T05:29:51.053Z,16.00
2018-12-19T05:30:51.034Z,16.00
2018-12-19T05:32:02.106Z,16.00
2018-12-19T05:32:51.018Z,16.00
2018-12-19T05:33:51.190Z,16.00
2018-12-19T05:34:50.992Z,16.00
2018-12-19T05:35:50.982Z,16.00
2018-12-19T05:36:50.981Z,16.00
2018-12-19T05:37:50.969Z,16.00
2018-12-19T05:38:50.951Z,16.00
2018-12-19T05:39:50.982Z,16.00
2018-12-19T05:40:50.940Z,16.00
2018-12-19T05:41:50.926Z,16.00
2018-12-19T05:42:50.912Z,16.00
2018-12-19T05:43:50.899Z,16.00
2018-12-19T05:44:50.894Z,16.00
2018-12-19T05:45:50.913Z,16.00
2018-12-19T05:46:50.869Z,16.00
2018-12-19T05:47:50.863Z,16.00
2018-12-19T05:48:50.855Z,16.00
2018-12-19T05:49:50.841Z,16.00
2018-12-19T05:50:50.834Z,16.00
2018-12-19T05:51:50.868Z,16.00
2018-12-19T05:52:50.811Z,16.00
2018-12-19T05:53:50.799Z,16.00
2018-12-19T05:54:50.792Z,16.00
2018-12-19T05:55:50.798Z,12.00
2018-12-19T05:56:50.774Z,16.00
2018-12-19T05:57:50.842Z,16.00
2018-12-19T05:58:50.746Z,16.00
2018-12-19T05:59:50.739Z,12.00
2018-12-19T06:00:50.725Z,16.00
2018-12-19T06:01:50.715Z,16.00
2018-12-19T06:03:01.446Z,16.00
2018-12-19T06:03:50.696Z,16.00
2018-12-19T06:04:50.683Z,12.00
2018-12-19T06:05:50.673Z,12.00
2018-12-19T06:06:50.669Z,12.00
2018-12-19T06:07:50.661Z,12.00
2018-12-19T06:08:50.691Z,12.00
2018-12-19T06:09:50.638Z,12.00
2018-12-19T06:10:50.623Z,12.00
2018-12-19T06:11:50.609Z,12.00
2018-12-19T06:12:50.599Z,16.00
2018-12-19T06:13:50.592Z,16.00
2018-12-19T06:14:50.640Z,16.00
2018-12-19T06:15:50.574Z,16.00
2018-12-19T06:16:50.563Z,16.00
2018-12-19T06:17:50.551Z,16.00
2018-12-19T06:18:50.537Z,16.00
2018-12-19T06:19:50.533Z,20.00
2018-12-19T06:20:50.568Z,16.00
2018-12-19T06:21:50.510Z,16.00
2018-12-19T06:22:50.500Z,16.00
2018-12-19T06:23:50.515Z,16.00
2018-12-19T06:24:50.481Z,20.00
2018-12-19T06:25:50.467Z,20.00
2018-12-19T06:26:50.506Z,16.00
2018-12-19T06:27:50.448Z,20.00
2018-12-19T06:28:50.467Z,20.00
2018-12-19T06:29:50.441Z,20.00
2018-12-19T06:30:50.413Z,20.00
2018-12-19T06:31:50.407Z,20.00
2018-12-19T06:32:50.449Z,20.00
2018-12-19T06:34:00.511Z,24.00
2018-12-19T06:34:50.371Z,24.00
2018-12-19T06:35:50.391Z,24.00
2018-12-19T06:36:50.358Z,24.00
2018-12-19T06:37:50.344Z,28.00
2018-12-19T06:38:50.369Z,28.00
2018-12-19T06:39:50.328Z,32.00
2018-12-19T06:40:50.311Z,32.00
2018-12-19T06:41:50.305Z,36.00
2018-12-19T06:42:50.296Z,40.00
2018-12-19T06:43:50.278Z,44.00
2018-12-19T06:44:50.315Z,44.00
2018-12-19T06:45:50.271Z,48.00
2018-12-19T06:46:50.250Z,52.00
2018-12-19T06:47:50.255Z,52.00
2018-12-19T06:48:50.232Z,56.00
2018-12-19T06:49:50.218Z,64.00
2018-12-19T06:50:50.268Z,68.00
2018-12-19T06:51:50.203Z,72.00
2018-12-19T06:52:50.185Z,76.00
2018-12-19T06:53:50.252Z,84.00
2018-12-19T06:54:50.176Z,88.00
2018-12-19T06:55:50.177Z,92.00
2018-12-19T06:56:50.321Z,100.00
2018-12-19T06:57:50.135Z,104.00
2018-12-19T06:58:50.129Z,108.00
2018-12-19T06:59:50.145Z,116.00
2018-12-19T07:00:50.109Z,124.00
2018-12-19T07:01:50.093Z,128.00
2018-12-19T07:02:50.136Z,136.00
2018-12-19T07:03:50.073Z,144.00
2018-12-19T07:05:00.375Z,152.00
2018-12-19T07:05:50.050Z,160.00
2018-12-19T07:06:50.040Z,168.00
2018-12-19T07:07:50.033Z,180.00
2018-12-19T07:08:50.059Z,188.00
2018-12-19T07:09:50.066Z,200.00
2018-12-19T07:10:49.999Z,212.00
2018-12-19T07:11:49.989Z,220.00
2018-12-19T07:12:49.980Z,232.00
2018-12-19T07:13:49.999Z,240.00
2018-12-19T07:14:50.130Z,252.00
2018-12-19T07:15:49.945Z,260.00
2018-12-19T07:16:49.941Z,272.00
2018-12-19T07:17:49.932Z,280.00
2018-12-19T07:18:49.930Z,288.00
2018-12-19T07:19:49.907Z,300.00
2018-12-19T07:20:49.932Z,312.00
2018-12-19T07:21:49.884Z,316.00
2018-12-19T07:22:49.880Z,328.00
2018-12-19T07:23:49.872Z,336.00
2018-12-19T07:24:49.925Z,348.00
2018-12-19T07:25:49.867Z,356.00
2018-12-19T07:26:49.870Z,376.00
2018-12-19T07:27:49.847Z,384.00
2018-12-19T07:28:50.430Z,404.00
2018-12-19T07:29:49.802Z,416.00
2018-12-19T07:30:49.796Z,424.00
2018-12-19T07:31:49.835Z,428.00
2018-12-19T07:32:49.832Z,440.00
2018-12-19T07:33:49.763Z,440.00
2018-12-19T07:34:49.751Z,444.00
2018-12-19T07:36:00.049Z,456.00
2018-12-19T07:36:49.735Z,472.00
2018-12-19T07:37:49.718Z,476.00
2018-12-19T07:38:49.749Z,484.00
2018-12-19T07:39:49.704Z,492.00
2018-12-19T07:40:49.690Z,500.00
2018-12-19T07:41:49.676Z,500.00
2018-12-19T07:42:49.692Z,508.00
2018-12-19T07:43:49.654Z,516.00
2018-12-19T07:44:49.682Z,516.00
2018-12-19T07:45:49.679Z,524.00
2018-12-19T07:46:49.626Z,532.00
2018-12-19T07:47:49.612Z,532.00
2018-12-19T07:48:49.611Z,548.00
2018-12-19T07:49:49.604Z,564.00
2018-12-19T07:50:49.625Z,584.00
2018-12-19T07:51:49.577Z,608.00
2018-12-19T07:52:49.560Z,628.00
2018-12-19T07:53:49.549Z,644.00
2018-12-19T07:54:49.540Z,660.00
2018-12-19T07:55:49.549Z,656.00
2018-12-19T07:56:49.562Z,672.00
2018-12-19T07:57:49.505Z,684.00
2018-12-19T07:58:49.506Z,692.00
2018-12-19T07:59:49.483Z,700.00
2018-12-19T08:00:49.481Z,704.00
2018-12-19T08:01:49.480Z,712.00
2018-12-19T08:02:49.551Z,712.00
2018-12-19T08:03:49.446Z,716.00
2018-12-19T08:04:49.451Z,724.00
2018-12-19T08:05:49.423Z,732.00
2018-12-19T08:07:01.103Z,736.00
2018-12-19T08:07:49.410Z,748.00
2018-12-19T08:08:49.473Z,752.00
2018-12-19T08:09:49.387Z,760.00
2018-12-19T08:10:52.277Z,764.00
2018-12-19T08:11:49.377Z,768.00
2018-12-19T08:12:49.364Z,780.00
2018-12-19T08:13:49.342Z,792.00
2018-12-19T08:14:49.361Z,800.00
2018-12-19T08:15:49.321Z,820.00
2018-12-19T08:16:49.334Z,832.00
2018-12-19T08:17:49.303Z,844.00
2018-12-19T08:18:49.303Z,852.00
2018-12-19T08:19:49.282Z,852.00
2018-12-19T08:20:49.447Z,864.00
2018-12-19T08:21:49.264Z,880.00
2018-12-19T08:22:49.252Z,904.00
2018-12-19T08:23:49.244Z,920.00
2018-12-19T08:24:49.227Z,936.00
2018-12-19T08:25:49.221Z,944.00
2018-12-19T08:26:49.386Z,952.00
2018-12-19T08:27:49.207Z,960.00
2018-12-19T08:28:49.188Z,980.00
2018-12-19T08:29:49.178Z,1000.00
2018-12-19T08:30:49.165Z,1020.00
2018-12-19T08:31:49.162Z,1032.00
2018-12-19T08:32:49.243Z,1052.00
2018-12-19T08:33:49.144Z,1060.00
2018-12-19T08:34:49.175Z,1068.00
2018-12-19T08:35:56.112Z,1080.00
2018-12-19T08:36:49.113Z,1088.00
2018-12-19T08:37:49.095Z,1120.00
2018-12-19T08:38:49.098Z,1144.00
2018-12-19T08:39:49.079Z,1136.00
2018-12-19T08:40:49.068Z,1176.00
2018-12-19T08:41:49.049Z,1188.00
2018-12-19T08:42:49.044Z,1212.00
2018-12-19T08:43:49.050Z,1240.00
2018-12-19T08:44:49.064Z,1252.00
2018-12-19T08:45:49.012Z,1260.00
2018-12-19T08:46:49.002Z,1280.00
2018-12-19T08:47:48.991Z,1272.00
2018-12-19T08:48:48.982Z,1260.00
2018-12-19T08:49:48.980Z,1276.00
2018-12-19T08:50:48.991Z,1280.00
2018-12-19T08:51:48.951Z,1272.00
2018-12-19T08:52:48.936Z,1288.00
2018-12-19T08:53:48.930Z,1300.00
2018-12-19T08:54:48.919Z,1304.00
2018-12-19T08:55:48.905Z,1288.00
2018-12-19T08:56:48.931Z,1268.00
2018-12-19T08:57:48.887Z,1260.00
2018-12-19T08:58:48.874Z,1256.00
2018-12-19T08:59:48.860Z,1260.00
2018-12-19T09:00:48.858Z,1252.00
2018-12-19T09:01:48.841Z,1264.00
2018-12-19T09:02:48.875Z,1272.00
2018-12-19T09:03:48.821Z,1280.00
2018-12-19T09:04:48.814Z,1300.00
2018-12-19T09:05:48.797Z,1312.00
2018-12-19T09:07:02.063Z,1316.00
2018-12-19T09:07:48.788Z,1304.00
2018-12-19T09:08:48.892Z,1316.00
2018-12-19T09:09:50.436Z,1324.00
2018-12-19T09:10:48.801Z,1336.00
2018-12-19T09:11:50.086Z,1340.00
2018-12-19T09:12:48.727Z,1332.00
2018-12-19T09:13:48.715Z,1368.00
2018-12-19T09:14:48.746Z,1384.00
2018-12-19T09:15:48.715Z,1384.00
2018-12-19T09:16:48.710Z,1384.00
2018-12-19T09:17:48.688Z,1376.00
2018-12-19T09:18:48.667Z,1388.00
2018-12-19T09:19:48.764Z,1392.00
2018-12-19T09:20:49.125Z,1388.00
2018-12-19T09:21:48.634Z,1396.00
2018-12-19T09:22:48.627Z,1396.00
2018-12-19T09:23:48.649Z,1384.00
2018-12-19T09:24:48.611Z,1380.00
2018-12-19T09:25:48.617Z,1388.00
2018-12-19T09:26:48.641Z,1408.00
2018-12-19T09:27:48.587Z,1444.00
2018-12-19T09:28:48.560Z,1472.00
2018-12-19T09:29:48.652Z,1500.00
2018-12-19T09:30:48.543Z,1500.00
2018-12-19T09:31:48.581Z,1488.00
2018-12-19T09:32:48.590Z,1472.00
2018-12-19T09:33:48.505Z,1432.00
2018-12-19T09:34:48.495Z,1412.00
2018-12-19T09:35:48.484Z,1388.00
2018-12-19T09:36:48.482Z,1372.00
2018-12-19T09:37:59.538Z,1372.00
2018-12-19T09:38:48.454Z,1380.00
2018-12-19T09:39:48.991Z,1372.00
2018-12-19T09:40:48.430Z,1368.00
2018-12-19T09:41:48.429Z,1368.00
2018-12-19T09:42:48.422Z,1368.00
2018-12-19T09:43:48.539Z,1384.00
2018-12-19T09:44:48.460Z,1408.00
2018-12-19T09:45:48.412Z,1424.00
2018-12-19T09:46:48.381Z,1428.00
2018-12-19T09:47:48.355Z,1416.00
2018-12-19T09:48:48.371Z,1408.00
2018-12-19T09:49:48.373Z,1416.00
2018-12-19T09:50:48.353Z,1436.00
2018-12-19T09:51:48.312Z,1452.00
2018-12-19T09:52:48.309Z,1436.00
2018-12-19T09:53:48.312Z,1428.00
2018-12-19T09:54:48.294Z,1408.00
2018-12-19T09:55:48.320Z,1392.00
2018-12-19T09:56:48.267Z,1384.00
2018-12-19T09:57:48.254Z,1364.00
2018-12-19T09:58:48.245Z,1348.00
2018-12-19T09:59:48.249Z,1320.00
2018-12-19T10:00:48.218Z,1284.00
2018-12-19T10:01:48.251Z,1256.00
2018-12-19T10:02:49.402Z,1216.00
2018-12-19T10:03:48.195Z,1196.00
2018-12-19T10:04:48.188Z,1168.00
2018-12-19T10:05:48.180Z,1140.00
2018-12-19T10:06:48.161Z,1116.00
2018-12-19T10:07:48.237Z,1100.00
2018-12-19T10:08:59.098Z,1080.00
2018-12-19T10:09:48.544Z,1068.00
2018-12-19T10:10:48.129Z,1048.00
2018-12-19T10:11:48.108Z,1028.00
2018-12-19T10:12:48.092Z,1032.00
2018-12-19T10:13:48.134Z,1012.00
2018-12-19T10:14:48.072Z,996.00
2018-12-19T10:15:48.084Z,988.00
2018-12-19T10:16:48.078Z,984.00
2018-12-19T10:17:48.055Z,976.00
2018-12-19T10:18:48.044Z,964.00
2018-12-19T10:19:48.078Z,920.00
2018-12-19T10:20:48.027Z,912.00
2018-12-19T10:21:48.000Z,920.00
2018-12-19T10:22:48.529Z,900.00
2018-12-19T10:23:47.985Z,912.00
2018-12-19T10:24:47.968Z,884.00
2018-12-19T10:25:48.137Z,888.00
2018-12-19T10:26:47.952Z,876.00
2018-12-19T10:27:47.945Z,884.00
2018-12-19T10:28:47.927Z,888.00
2018-12-19T10:29:47.929Z,912.00
2018-12-19T10:30:47.915Z,920.00
2018-12-19T10:31:48.054Z,924.00
2018-12-19T10:32:47.885Z,928.00
2018-12-19T10:33:47.894Z,924.00
2018-12-19T10:34:47.884Z,940.00
2018-12-19T10:35:47.858Z,944.00
2018-12-19T10:36:47.845Z,952.00
2018-12-19T10:37:47.881Z,968.00
2018-12-19T10:38:47.823Z,988.00
2018-12-19T10:39:59.037Z,992.00
2018-12-19T10:40:47.810Z,1016.00
2018-12-19T10:41:54.791Z,1028.00
2018-12-19T10:42:47.789Z,1052.00
2018-12-19T10:43:47.817Z,1068.00
2018-12-19T10:44:47.769Z,1080.00
2018-12-19T10:45:47.756Z,1084.00
2018-12-19T10:46:47.752Z,1080.00
2018-12-19T10:47:47.736Z,1060.00
2018-12-19T10:48:47.727Z,1032.00
2018-12-19T10:49:47.765Z,1016.00
2018-12-19T10:50:47.706Z,996.00
2018-12-19T10:51:47.696Z,984.00
2018-12-19T10:52:47.686Z,972.00
2018-12-19T10:53:47.682Z,952.00
2018-12-19T10:54:47.665Z,944.00
2018-12-19T10:55:47.684Z,948.00
2018-12-19T10:56:47.637Z,968.00
2018-12-19T10:57:47.627Z,988.00
2018-12-19T10:58:47.618Z,1008.00
2018-12-19T10:59:47.614Z,1024.00
2018-12-19T11:00:47.604Z,1052.00
2018-12-19T11:01:47.628Z,1072.00
2018-12-19T11:02:47.580Z,1092.00
2018-12-19T11:03:47.575Z,1124.00
2018-12-19T11:04:47.564Z,1148.00
2018-12-19T11:05:54.188Z,1184.00
2018-12-19T11:06:48.577Z,1224.00
2018-12-19T11:07:47.536Z,1248.00
2018-12-19T11:08:47.519Z,1264.00
2018-12-19T11:09:47.508Z,1268.00
2018-12-19T11:10:47.498Z,1272.00
2018-12-19T11:11:47.488Z,1296.00
2018-12-19T11:13:03.139Z,1328.00
2018-12-19T11:13:47.470Z,1348.00
2018-12-19T11:14:47.448Z,1376.00
2018-12-19T11:15:47.450Z,1392.00
2018-12-19T11:16:47.437Z,1408.00
2018-12-19T11:17:47.421Z,1416.00
2018-12-19T11:18:47.468Z,1392.00
2018-12-19T11:19:47.423Z,1356.00
2018-12-19T11:20:47.390Z,1316.00
2018-12-19T11:21:47.381Z,1284.00
2018-12-19T11:22:47.373Z,1272.00
2018-12-19T11:23:47.382Z,1264.00
2018-12-19T11:24:47.389Z,1240.00
2018-12-19T11:25:47.416Z,1228.00
2018-12-19T11:26:47.326Z,1212.00
2018-12-19T11:27:47.313Z,1184.00
2018-12-19T11:28:47.301Z,1148.00
2018-12-19T11:29:47.293Z,1116.00
2018-12-19T11:30:47.459Z,1088.00
2018-12-19T11:31:47.276Z,1056.00
2018-12-19T11:32:47.268Z,1032.00
2018-12-19T11:33:47.258Z,1004.00
2018-12-19T11:34:47.240Z,968.00
2018-12-19T11:35:47.232Z,932.00
2018-12-19T11:36:47.322Z,904.00
2018-12-19T11:37:47.218Z,880.00
2018-12-19T11:38:47.214Z,844.00
2018-12-19T11:39:47.196Z,812.00
2018-12-19T11:40:47.175Z,780.00
2018-12-19T11:41:47.169Z,752.00
2018-12-19T11:42:47.193Z,724.00
2018-12-19T11:43:57.365Z,712.00
2018-12-19T11:44:47.140Z,696.00
2018-12-19T11:45:47.129Z,676.00
2018-12-19T11:46:47.118Z,660.00
2018-12-19T11:47:47.107Z,640.00
2018-12-19T11:48:47.139Z,628.00
2018-12-19T11:49:47.083Z,616.00
2018-12-19T11:50:48.072Z,608.00
2018-12-19T11:51:47.068Z,600.00
2018-12-19T11:52:47.056Z,588.00
2018-12-19T11:53:47.041Z,576.00
2018-12-19T11:54:47.079Z,564.00
2018-12-19T11:55:47.017Z,548.00
2018-12-19T11:56:47.007Z,532.00
2018-12-19T11:57:47.008Z,512.00
2018-12-19T11:58:46.988Z,500.00
2018-12-19T11:59:46.978Z,488.00
2018-12-19T12:00:47.001Z,480.00
2018-12-19T12:01:46.956Z,472.00
2018-12-19T12:02:46.947Z,468.00
2018-12-19T12:03:46.946Z,460.00
2018-12-19T12:04:46.928Z,456.00
2018-12-19T12:05:46.916Z,452.00
2018-12-19T12:06:46.942Z,452.00
2018-12-19T12:07:46.899Z,444.00
2018-12-19T12:08:46.881Z,440.00
2018-12-19T12:09:46.870Z,432.00
2018-12-19T12:10:46.878Z,404.00
2018-12-19T12:11:46.854Z,420.00
2018-12-19T12:12:46.923Z,408.00
2018-12-19T12:13:46.843Z,400.00
2018-12-19T12:14:57.259Z,392.00
2018-12-19T12:15:46.811Z,388.00
2018-12-19T12:16:46.806Z,376.00
2018-12-19T12:17:46.790Z,368.00
2018-12-19T12:18:46.822Z,348.00
2018-12-19T12:19:48.084Z,340.00
2018-12-19T12:20:46.761Z,328.00
2018-12-19T12:21:46.746Z,320.00
2018-12-19T12:22:46.741Z,312.00
2018-12-19T12:23:47.362Z,300.00
2018-12-19T12:24:46.744Z,292.00
2018-12-19T12:25:46.706Z,288.00
2018-12-19T12:26:46.693Z,276.00
2018-12-19T12:27:46.688Z,272.00
2018-12-19T12:28:46.678Z,268.00
2018-12-19T12:29:46.671Z,268.00
2018-12-19T12:30:46.703Z,260.00
2018-12-19T12:31:46.641Z,252.00
2018-12-19T12:32:46.630Z,244.00
2018-12-19T12:33:46.624Z,236.00
2018-12-19T12:34:46.615Z,228.00
2018-12-19T12:35:46.598Z,220.00
2018-12-19T12:36:46.635Z,212.00